createdAt,value
2022-08-11T00:02:16.310Z,22.78
2022-08-11T00:04:42.198Z,22.66
2022-08-11T00:07:08.099Z,22.26
2022-08-11T00:09:39.361Z,22.56
2022-08-11T00:12:05.898Z,22.45
2022-08-11T00:14:36.752Z,22.36
2022-08-11T00:17:03.826Z,22.38
2022-08-11T00:20:13.344Z,22.02
2022-08-11T00:22:15.654Z,21.87
2022-08-11T00:24:52.626Z,21.70
2022-08-11T00:27:22.062Z,22.00
2022-08-11T00:29:51.778Z,21.89
2022-08-11T00:32:17.958Z,21.93
2022-08-11T00:34:43.920Z,21.93
2022-08-11T00:37:09.807Z,21.74
2022-08-11T00:39:35.746Z,22.13
2022-08-11T00:42:01.798Z,21.80
2022-08-11T00:44:27.686Z,21.87
2022-08-11T00:46:54.762Z,21.19
2022-08-11T00:49:20.743Z,21.33
2022-08-11T00:52:03.981Z,21.45
2022-08-11T00:54:33.201Z,21.46
2022-08-11T00:56:59.214Z,21.39
2022-08-11T00:59:34.827Z,21.25
2022-08-11T01:02:01.844Z,21.19
2022-08-11T01:04:27.737Z,21.51
2022-08-11T01:06:53.626Z,21.86
2022-08-11T01:09:22.511Z,21.75
2022-08-11T01:11:55.649Z,21.64
2022-08-11T01:14:34.433Z,21.54
2022-08-11T01:17:00.664Z,21.35
2022-08-11T01:19:26.618Z,21.61
2022-08-11T01:21:52.538Z,21.61
2022-08-11T01:24:21.003Z,21.60
2022-08-11T01:26:46.964Z,21.42
2022-08-11T01:29:12.860Z,21.60
2022-08-11T01:31:38.757Z,21.46
2022-08-11T01:34:04.746Z,21.06
2022-08-11T01:36:30.639Z,21.53
2022-08-11T01:38:56.542Z,21.41
2022-08-11T01:41:22.483Z,21.33
2022-08-11T01:43:48.371Z,21.27
2022-08-11T01:46:14.277Z,21.27
2022-08-11T01:48:40.219Z,20.94
2022-08-11T01:51:06.133Z,21.06
2022-08-11T01:53:32.031Z,21.11
2022-08-11T01:55:57.985Z,21.41
2022-08-11T01:58:40.845Z,20.57
2022-08-11T02:01:09.896Z,20.92
2022-08-11T02:03:35.839Z,20.88
2022-08-11T02:06:01.744Z,21.01
2022-08-11T02:08:33.155Z,20.94
2022-08-11T02:10:59.656Z,20.47
2022-08-11T02:13:33.426Z,20.86
2022-08-11T02:16:02.525Z,20.98
2022-08-11T02:18:28.419Z,20.86
2022-08-11T02:20:54.322Z,20.92
2022-08-11T02:24:04.350Z,21.06
2022-08-11T02:26:06.612Z,20.56
2022-08-11T02:28:36.967Z,20.66
2022-08-11T02:31:04.738Z,20.50
2022-08-11T02:33:36.538Z,20.52
2022-08-11T02:36:02.619Z,20.66
2022-08-11T02:38:28.515Z,20.64
2022-08-11T02:40:54.482Z,20.48
2022-08-11T02:43:20.372Z,20.47
2022-08-11T02:45:46.294Z,20.66
2022-08-11T02:48:12.251Z,20.57
2022-08-11T02:50:38.145Z,20.84
2022-08-11T02:53:04.034Z,20.62
2022-08-11T02:55:55.764Z,20.49
2022-08-11T02:58:15.861Z,20.38
2022-08-11T03:00:42.687Z,20.40
2022-08-11T03:03:08.622Z,20.39
2022-08-11T03:05:34.595Z,20.51
2022-08-11T03:08:00.577Z,20.08
2022-08-11T03:10:26.510Z,20.38
2022-08-11T03:12:53.812Z,20.26
2022-08-11T03:15:19.890Z,19.88
2022-08-11T03:17:45.861Z,20.18
2022-08-11T03:20:11.820Z,20.01
2022-08-11T03:22:38.111Z,20.33
2022-08-11T03:25:04.205Z,20.29
2022-08-11T03:27:30.161Z,20.29
2022-08-11T03:29:56.141Z,20.38
2022-08-11T03:32:22.082Z,20.10
2022-08-11T03:34:48.019Z,20.44
2022-08-11T03:37:16.107Z,20.34
2022-08-11T03:39:51.117Z,19.99
2022-08-11T03:42:22.858Z,19.72
2022-08-11T03:44:48.815Z,19.80
2022-08-11T03:47:14.755Z,19.71
2022-08-11T03:49:40.728Z,20.04
2022-08-11T03:52:06.674Z,20.31
2022-08-11T03:54:32.630Z,20.44
2022-08-11T03:56:58.638Z,20.48
2022-08-11T03:59:24.579Z,20.06
2022-08-11T04:01:50.546Z,20.00
2022-08-11T04:04:16.563Z,20.04
2022-08-11T04:06:42.502Z,20.31
2022-08-11T04:09:08.452Z,20.20
2022-08-11T04:11:34.474Z,19.97
2022-08-11T04:14:00.407Z,20.11
2022-08-11T04:16:26.371Z,20.00
2022-08-11T04:18:52.387Z,20.31
2022-08-11T04:21:18.322Z,20.48
2022-08-11T04:24:36.860Z,20.62
2022-08-11T04:26:30.234Z,20.34
2022-08-11T04:29:00.350Z,20.29
2022-08-11T04:31:49.607Z,20.22
2022-08-11T04:34:12.267Z,20.21
2022-08-11T04:36:38.369Z,20.21
2022-08-11T04:39:04.328Z,20.41
2022-08-11T04:41:30.341Z,20.40
2022-08-11T04:44:02.830Z,20.16
2022-08-11T04:46:32.490Z,20.55
2022-08-11T04:48:58.434Z,20.90
2022-08-11T04:51:24.385Z,21.20
2022-08-11T04:53:52.383Z,21.14
2022-08-11T04:56:18.472Z,21.38
2022-08-11T04:58:44.409Z,21.58
2022-08-11T05:01:10.405Z,21.62
2022-08-11T05:03:36.418Z,21.92
2022-08-11T05:06:02.360Z,21.86
2022-08-11T05:08:28.344Z,22.14
2022-08-11T05:10:54.299Z,22.34
2022-08-11T05:13:20.228Z,22.63
2022-08-11T05:15:49.594Z,22.74
2022-08-11T05:18:17.397Z,22.65
2022-08-11T05:20:43.354Z,22.88
2022-08-11T05:23:09.371Z,23.12
2022-08-11T05:26:43.466Z,23.25
2022-08-11T05:28:21.300Z,23.38
2022-08-11T05:30:47.248Z,23.38
2022-08-11T05:33:13.201Z,23.69
2022-08-11T05:36:02.295Z,23.77
2022-08-11T05:38:25.140Z,23.82
2022-08-11T05:40:53.240Z,24.01
2022-08-11T05:43:25.815Z,24.26
2022-08-11T05:46:03.362Z,24.44
2022-08-11T05:48:30.848Z,24.53
2022-08-11T05:50:56.823Z,24.66
2022-08-11T05:53:23.244Z,24.66
2022-08-11T05:56:02.349Z,24.93
2022-08-11T05:58:29.642Z,24.87
2022-08-11T06:00:55.591Z,25.07
2022-08-11T06:03:21.546Z,25.16
2022-08-11T06:05:47.538Z,25.11
2022-08-11T06:08:17.686Z,25.39
2022-08-11T06:10:43.636Z,25.57
2022-08-11T06:13:09.667Z,25.61
2022-08-11T06:15:35.636Z,25.84
2022-08-11T06:18:01.587Z,25.83
2022-08-11T06:20:30.151Z,26.15
2022-08-11T06:22:56.086Z,25.82
2022-08-11T06:25:22.038Z,26.18
2022-08-11T06:27:48.051Z,26.13
2022-08-11T06:30:14.042Z,26.25
2022-08-11T06:32:40.109Z,26.48
2022-08-11T06:35:06.112Z,26.53
2022-08-11T06:37:36.210Z,26.61
2022-08-11T06:40:02.558Z,26.51
2022-08-11T06:42:29.331Z,26.77
2022-08-11T06:44:55.274Z,26.84
2022-08-11T06:47:21.227Z,26.85
2022-08-11T06:49:47.203Z,26.70
2022-08-11T06:52:35.765Z,26.92
2022-08-11T06:54:59.208Z,27.20
2022-08-11T06:57:32.407Z,27.18
2022-08-11T06:59:58.391Z,27.37
2022-08-11T07:02:29.148Z,27.44
2022-08-11T07:04:56.957Z,27.25
2022-08-11T07:07:22.895Z,27.39
2022-08-11T07:09:48.889Z,27.56
2022-08-11T07:12:14.838Z,27.66
2022-08-11T07:14:40.784Z,27.65
2022-08-11T07:17:06.766Z,27.86
2022-08-11T07:19:32.711Z,27.80
2022-08-11T07:22:02.465Z,27.99
2022-08-11T07:24:34.556Z,28.16
2022-08-11T07:27:15.593Z,28.03
2022-08-11T07:29:41.626Z,28.18
2022-08-11T07:32:07.563Z,28.34
2022-08-11T07:34:33.521Z,28.55
2022-08-11T07:36:59.527Z,28.76
2022-08-11T07:39:25.556Z,28.53
2022-08-11T07:41:51.559Z,28.18
2022-08-11T07:44:17.565Z,27.57
2022-08-11T07:46:43.516Z,28.18
2022-08-11T07:49:09.462Z,28.55
2022-08-11T07:51:35.472Z,28.77
2022-08-11T07:54:15.345Z,28.99
2022-08-11T07:56:55.158Z,28.38
2022-08-11T07:59:57.537Z,29.04
2022-08-11T08:02:14.711Z,29.47
2022-08-11T08:04:45.329Z,29.24
2022-08-11T08:07:13.125Z,29.52
2022-08-11T08:09:39.122Z,29.20
2022-08-11T08:12:05.060Z,29.02
2022-08-11T08:14:31.009Z,29.09
2022-08-11T08:16:56.978Z,29.04
2022-08-11T08:19:22.927Z,29.22
2022-08-11T08:21:49.877Z,29.03
2022-08-11T08:24:15.875Z,28.97
2022-08-11T08:26:41.820Z,29.36
2022-08-11T08:29:14.308Z,29.75
2022-08-11T08:31:40.334Z,29.98
2022-08-11T08:34:06.294Z,29.05
2022-08-11T08:36:32.262Z,29.08
2022-08-11T08:38:58.247Z,29.15
2022-08-11T08:41:24.207Z,29.31
2022-08-11T08:43:50.177Z,29.88
2022-08-11T08:46:16.162Z,30.07
2022-08-11T08:48:42.121Z,29.58
2022-08-11T08:51:08.197Z,29.60
2022-08-11T08:53:34.190Z,29.28
2022-08-11T08:56:00.135Z,29.68
2022-08-11T08:58:26.089Z,30.05
2022-08-11T09:00:52.123Z,30.72
2022-08-11T09:03:39.907Z,30.92
2022-08-11T09:06:04.094Z,30.95
2022-08-11T09:08:30.043Z,30.86
2022-08-11T09:10:55.973Z,30.77
2022-08-11T09:13:21.976Z,30.75
2022-08-11T09:15:47.937Z,30.21
2022-08-11T09:18:13.892Z,30.34
2022-08-11T09:20:39.866Z,30.53
2022-08-11T09:25:51.807Z,31.38
2022-08-11T09:28:17.737Z,31.47
2022-08-11T09:30:43.683Z,31.50
2022-08-11T09:33:09.719Z,31.69
2022-08-11T09:35:35.693Z,32.02
2022-08-11T09:38:01.928Z,32.06
2022-08-11T09:40:28.209Z,32.21
2022-08-11T09:42:55.122Z,32.29
2022-08-11T09:45:21.070Z,32.41
2022-08-11T09:47:47.063Z,32.09
2022-08-11T09:50:13.023Z,31.72
2022-08-11T09:52:44.884Z,32.10
2022-08-11T09:55:18.292Z,31.68
2022-08-11T09:57:44.234Z,31.80
2022-08-11T10:00:13.423Z,31.35
2022-08-11T10:02:39.918Z,31.36
2022-08-11T10:05:05.870Z,32.03
2022-08-11T10:07:31.833Z,31.84
2022-08-11T10:09:57.818Z,31.97
2022-08-11T10:12:23.766Z,32.42
2022-08-11T10:14:49.747Z,31.68
2022-08-11T10:17:15.732Z,32.49
2022-08-11T10:19:41.672Z,32.68
2022-08-11T10:22:07.613Z,32.91
2022-08-11T10:24:33.599Z,33.11
2022-08-11T10:27:00.311Z,33.36
2022-08-11T10:29:26.509Z,33.67
2022-08-11T10:32:02.945Z,33.95
2022-08-11T10:34:30.531Z,33.50
2022-08-11T10:36:57.411Z,33.16
2022-08-11T10:39:23.502Z,33.47
2022-08-11T10:42:03.369Z,33.61
2022-08-11T10:44:35.470Z,33.66
2022-08-11T10:47:01.467Z,33.06
2022-08-11T10:49:27.420Z,32.63
2022-08-11T10:51:53.791Z,32.79
2022-08-11T10:54:20.251Z,33.85
2022-08-11T10:56:46.213Z,34.53
2022-08-11T10:59:12.195Z,33.88
2022-08-11T11:01:38.135Z,33.49
2022-08-11T11:04:04.119Z,32.37
2022-08-11T11:06:30.187Z,31.72
2022-08-11T11:08:58.898Z,31.94
2022-08-11T11:11:27.680Z,31.32
2022-08-11T11:13:55.453Z,31.52
2022-08-11T11:16:23.362Z,32.42
2022-08-11T11:19:00.711Z,33.92
2022-08-11T11:21:27.301Z,33.37
2022-08-11T11:23:53.256Z,32.06
2022-08-11T11:26:19.208Z,31.48
2022-08-11T11:28:53.781Z,31.86
2022-08-11T11:31:20.798Z,31.56
2022-08-11T11:34:06.867Z,31.51
2022-08-11T11:36:32.714Z,32.09
2022-08-11T11:38:59.661Z,32.18
2022-08-11T11:41:27.842Z,32.76
2022-08-11T11:43:53.953Z,33.10
2022-08-11T11:46:19.900Z,33.75
2022-08-11T11:48:45.851Z,33.54
2022-08-11T11:51:11.832Z,34.02
2022-08-11T11:53:37.798Z,33.54
2022-08-11T11:56:03.741Z,33.85
2022-08-11T11:58:29.756Z,34.76
2022-08-11T12:00:56.521Z,34.16
2022-08-11T12:03:22.488Z,33.81
2022-08-11T12:05:48.499Z,32.84
2022-08-11T12:08:14.444Z,31.84
2022-08-11T12:10:40.385Z,31.89
2022-08-11T12:13:06.507Z,33.19
2022-08-11T12:16:03.657Z,33.43
2022-08-11T12:18:18.407Z,33.22
2022-08-11T12:20:44.723Z,33.49
2022-08-11T12:23:10.762Z,33.22
2022-08-11T12:25:40.808Z,33.30
2022-08-11T12:28:06.762Z,34.34
2022-08-11T12:30:32.752Z,33.78
2022-08-11T12:32:58.804Z,33.55
2022-08-11T12:35:24.758Z,33.12
2022-08-11T12:37:50.731Z,33.29
2022-08-11T12:40:42.471Z,33.11
2022-08-11T12:43:04.073Z,33.74
2022-08-11T12:45:34.355Z,34.28
2022-08-11T12:48:47.820Z,34.78
2022-08-11T12:50:46.254Z,34.73
2022-08-11T12:53:12.222Z,34.24
2022-08-11T12:55:38.176Z,33.64
2022-08-11T12:58:04.182Z,33.13
2022-08-11T13:00:30.139Z,32.74
2022-08-11T13:02:56.213Z,33.65
2022-08-11T13:05:22.219Z,33.86
2022-08-11T13:07:50.654Z,34.27
2022-08-11T13:10:17.478Z,35.09
2022-08-11T13:12:44.794Z,35.70
2022-08-11T13:15:10.728Z,35.65
2022-08-11T13:17:43.438Z,34.27
2022-08-11T13:20:10.394Z,34.15
2022-08-11T13:22:36.338Z,34.93
2022-08-11T13:25:02.304Z,35.80
2022-08-11T13:27:28.301Z,35.38
2022-08-11T13:29:54.251Z,35.28
2022-08-11T13:32:20.227Z,35.32
2022-08-11T13:34:46.228Z,34.53
2022-08-11T13:37:12.175Z,34.11
2022-08-11T13:39:38.187Z,33.47
2022-08-11T13:42:04.235Z,32.93
2022-08-11T13:44:30.280Z,32.79
2022-08-11T13:46:56.292Z,32.30
2022-08-11T13:49:22.309Z,32.40
2022-08-11T13:51:48.249Z,32.48
2022-08-11T13:54:14.194Z,32.21
2022-08-11T13:56:40.194Z,32.60
2022-08-11T13:59:06.132Z,32.68
2022-08-11T14:02:21.285Z,32.80
2022-08-11T14:04:30.552Z,32.78
2022-08-11T14:06:57.903Z,32.31
2022-08-11T14:09:26.121Z,31.66
2022-08-11T14:12:23.160Z,32.11
2022-08-11T14:14:38.050Z,32.72
2022-08-11T14:17:04.042Z,32.67
2022-08-11T14:19:29.980Z,32.33
2022-08-11T14:21:56.004Z,32.37
2022-08-11T14:24:21.963Z,32.92
2022-08-11T14:26:47.915Z,32.71
2022-08-11T14:29:13.971Z,33.34
2022-08-11T14:31:39.964Z,32.61
2022-08-11T14:34:05.929Z,32.51
2022-08-11T14:36:31.905Z,32.91
2022-08-11T14:38:57.842Z,33.51
2022-08-11T14:41:23.819Z,34.62
2022-08-11T14:44:12.440Z,35.30
2022-08-11T14:46:35.732Z,35.50
2022-08-11T14:49:01.733Z,35.09
2022-08-11T14:51:27.693Z,35.73
2022-08-11T14:53:58.686Z,35.82
2022-08-11T14:56:25.007Z,36.02
2022-08-11T14:58:50.955Z,35.71
2022-08-11T15:01:16.910Z,35.49
2022-08-11T15:03:42.979Z,35.97
2022-08-11T15:06:29.011Z,36.16
2022-08-11T15:08:55.084Z,35.24
2022-08-11T15:11:21.044Z,34.14
2022-08-11T15:13:46.983Z,32.20
2022-08-11T15:16:13.014Z,31.90
2022-08-11T15:18:38.956Z,31.77
2022-08-11T15:21:04.899Z,31.45
2022-08-11T15:23:30.893Z,31.21
2022-08-11T15:25:56.847Z,31.57
2022-08-11T15:28:22.793Z,31.90
2022-08-11T15:30:48.783Z,31.74
2022-08-11T15:33:14.739Z,31.41
2022-08-11T15:35:40.686Z,31.28
2022-08-11T15:38:06.689Z,31.40
2022-08-11T15:40:33.212Z,31.08
2022-08-11T15:42:59.291Z,31.41
2022-08-11T15:45:25.284Z,31.43
2022-08-11T15:47:51.227Z,31.52
2022-08-11T15:50:18.645Z,31.39
2022-08-11T15:52:44.634Z,31.80
2022-08-11T15:55:10.577Z,31.60
2022-08-11T15:57:39.786Z,31.63
2022-08-11T16:00:06.218Z,31.95
2022-08-11T16:02:32.149Z,32.10
2022-08-11T16:04:58.119Z,31.37
2022-08-11T16:07:25.290Z,31.00
2022-08-11T16:09:55.005Z,31.19
2022-08-11T16:12:25.716Z,30.78
2022-08-11T16:14:51.666Z,30.36
2022-08-11T16:17:17.605Z,30.74
2022-08-11T16:19:43.595Z,30.68
2022-08-11T16:22:09.535Z,30.48
2022-08-11T16:27:02.836Z,30.47
2022-08-11T16:27:24.447Z,29.99
2022-08-11T16:29:50.609Z,29.66
2022-08-11T16:32:16.559Z,29.82
2022-08-11T16:34:42.533Z,29.92
2022-08-11T16:37:08.481Z,30.01
2022-08-11T16:39:34.480Z,30.03
2022-08-11T16:42:00.507Z,30.37
2022-08-11T16:44:32.895Z,30.61
2022-08-11T16:47:03.459Z,30.37
2022-08-11T16:49:32.801Z,30.07
2022-08-11T16:52:00.647Z,30.04
2022-08-11T16:54:28.012Z,29.86
2022-08-11T16:56:54.406Z,29.90
2022-08-11T16:59:20.373Z,30.06
2022-08-11T17:01:46.403Z,30.34
2022-08-11T17:04:12.681Z,29.82
2022-08-11T17:06:38.644Z,30.00
2022-08-11T17:09:04.653Z,30.34
2022-08-11T17:11:30.619Z,30.28
2022-08-11T17:13:56.564Z,30.26
2022-08-11T17:16:22.573Z,29.72
2022-08-11T17:18:48.531Z,29.67
2022-08-11T17:21:14.465Z,29.78
2022-08-11T17:23:40.450Z,30.00
2022-08-11T17:26:06.389Z,30.10
2022-08-11T17:28:32.345Z,30.00
2022-08-11T17:30:58.341Z,29.96
2022-08-11T17:33:24.289Z,29.45
2022-08-11T17:35:50.217Z,29.48
2022-08-11T17:38:16.220Z,29.62
2022-08-11T17:40:42.157Z,29.48
2022-08-11T17:43:08.111Z,29.90
2022-08-11T17:45:34.147Z,29.90
2022-08-11T17:48:00.120Z,29.65
2022-08-11T17:50:26.097Z,29.71
2022-08-11T17:52:52.095Z,30.05
2022-08-11T17:55:18.048Z,29.97
2022-08-11T17:58:04.042Z,29.98
2022-08-11T18:00:29.987Z,29.66
2022-08-11T18:02:55.931Z,29.65
2022-08-11T18:05:21.920Z,29.89
2022-08-11T18:07:47.864Z,29.16
2022-08-11T18:10:13.801Z,29.40
2022-08-11T18:12:39.794Z,28.99
2022-08-11T18:15:05.811Z,29.41
2022-08-11T18:17:31.750Z,29.37
2022-08-11T18:19:57.730Z,29.22
2022-08-11T18:22:23.686Z,28.63
2022-08-11T18:24:49.635Z,28.69
2022-08-11T18:27:15.639Z,28.87
2022-08-11T18:29:47.972Z,28.55
2022-08-11T18:32:20.896Z,28.73
2022-08-11T18:34:49.081Z,28.56
2022-08-11T18:37:22.031Z,28.55
2022-08-11T18:39:55.972Z,28.91
2022-08-11T18:42:29.597Z,28.94
2022-08-11T18:44:55.873Z,28.71
2022-08-11T18:47:21.843Z,29.00
2022-08-11T18:50:01.783Z,28.82
2022-08-11T18:52:29.412Z,28.99
2022-08-11T18:54:55.798Z,29.10
2022-08-11T18:57:21.766Z,28.78
2022-08-11T18:59:47.793Z,29.02
2022-08-11T19:02:13.742Z,29.17
2022-08-11T19:04:39.696Z,29.31
2022-08-11T19:07:05.688Z,29.45
2022-08-11T19:09:31.637Z,29.55
2022-08-11T19:11:59.856Z,29.61
2022-08-11T19:14:26.001Z,29.72
2022-08-11T19:16:51.941Z,29.71
2022-08-11T19:19:17.894Z,29.52
2022-08-11T19:21:43.878Z,29.56
2022-08-11T19:24:09.816Z,29.42
2022-08-11T19:26:35.758Z,29.48
2022-08-11T19:29:01.758Z,29.41
2022-08-11T19:31:27.740Z,29.46
2022-08-11T19:34:03.187Z,29.36
2022-08-11T19:36:36.513Z,29.38
2022-08-11T19:39:02.468Z,29.32
2022-08-11T19:41:56.649Z,29.20
2022-08-11T19:44:16.643Z,29.28
2022-08-11T19:46:42.731Z,29.32
2022-08-11T19:49:08.680Z,29.22
2022-08-11T19:51:34.680Z,29.20
2022-08-11T19:54:00.623Z,29.18
2022-08-11T19:56:26.562Z,29.11
2022-08-11T19:58:52.582Z,29.16
2022-08-11T20:01:18.598Z,29.09
2022-08-11T20:03:44.551Z,28.96
2022-08-11T20:06:10.544Z,28.97
2022-08-11T20:08:36.504Z,28.95
2022-08-11T20:11:02.450Z,28.96
2022-08-11T20:13:28.468Z,28.85
2022-08-11T20:15:54.467Z,28.86
2022-08-11T20:18:20.474Z,28.93
2022-08-11T20:20:46.454Z,28.70
2022-08-11T20:23:13.841Z,28.64
2022-08-11T20:25:39.890Z,28.66
2022-08-11T20:28:05.895Z,28.59
2022-08-11T20:30:31.846Z,28.55
2022-08-11T20:32:57.781Z,28.59
2022-08-11T20:35:23.771Z,28.59
2022-08-11T20:37:51.423Z,28.57
2022-08-11T20:40:17.604Z,28.54
2022-08-11T20:42:49.778Z,28.39
2022-08-11T20:45:15.729Z,28.37
2022-08-11T20:47:56.506Z,28.15
2022-08-11T20:50:26.594Z,28.07
2022-08-11T20:52:54.700Z,28.02
2022-08-11T20:55:25.806Z,28.02
2022-08-11T20:58:07.007Z,28.02
2022-08-11T21:00:40.403Z,27.90
2022-08-11T21:03:06.394Z,27.91
2022-08-11T21:06:09.908Z,27.93
2022-08-11T21:08:18.293Z,27.99
2022-08-11T21:10:51.983Z,28.05
2022-08-11T21:13:27.033Z,28.03
2022-08-11T21:16:01.537Z,27.90
2022-08-11T21:18:29.617Z,27.97
2022-08-11T21:20:55.738Z,27.86
2022-08-11T21:23:24.410Z,27.87
2022-08-11T21:25:50.496Z,27.81
2022-08-11T21:28:16.490Z,27.70
2022-08-11T21:30:42.434Z,27.75
2022-08-11T21:33:08.380Z,27.69
2022-08-11T21:35:34.360Z,27.74
2022-08-11T21:38:01.717Z,27.74
2022-08-11T21:40:33.006Z,27.80
2022-08-11T21:42:58.995Z,27.63
2022-08-11T21:45:24.944Z,27.58
2022-08-11T21:48:00.820Z,27.52
2022-08-11T21:50:27.226Z,27.51
2022-08-11T21:52:53.574Z,27.49
2022-08-11T21:55:20.981Z,27.48
2022-08-11T21:57:47.983Z,27.45
2022-08-11T22:00:16.666Z,27.44
2022-08-11T22:02:42.849Z,27.44
2022-08-11T22:05:15.105Z,27.25
2022-08-11T22:07:41.257Z,27.29
2022-08-11T22:10:27.224Z,27.45
2022-08-11T22:12:53.234Z,27.21
2022-08-11T22:15:19.162Z,27.22
2022-08-11T22:17:45.117Z,27.24
2022-08-11T22:20:11.103Z,27.06
2022-08-11T22:22:51.223Z,27.20
2022-08-11T22:25:18.838Z,27.13
2022-08-11T22:27:46.640Z,27.08
2022-08-11T22:30:12.578Z,27.05
2022-08-11T22:32:38.666Z,27.00
2022-08-11T22:35:04.743Z,27.00
2022-08-11T22:37:30.680Z,27.06
2022-08-11T22:40:02.244Z,26.97
2022-08-11T22:42:33.201Z,26.83
2022-08-11T22:45:09.548Z,26.70
2022-08-11T22:47:38.367Z,26.75
2022-08-11T22:50:06.563Z,26.62
2022-08-11T22:52:32.574Z,26.58
2022-08-11T22:54:58.548Z,26.50
2022-08-11T22:57:24.491Z,26.57
2022-08-11T22:59:50.475Z,26.69
2022-08-11T23:02:16.426Z,26.53
2022-08-11T23:04:42.393Z,26.38
2022-08-11T23:07:08.394Z,26.17
2022-08-11T23:09:34.388Z,26.45
2022-08-11T23:12:06.629Z,26.52
2022-08-11T23:14:33.517Z,26.39
2022-08-11T23:16:59.460Z,26.41
2022-08-11T23:20:00.339Z,26.10
2022-08-11T23:22:11.368Z,26.16
2022-08-11T23:24:37.358Z,25.97
2022-08-11T23:27:03.334Z,25.89
2022-08-11T23:29:29.315Z,26.15
2022-08-11T23:31:55.255Z,26.34
2022-08-11T23:35:02.881Z,26.35
2022-08-11T23:37:07.145Z,26.36
2022-08-11T23:39:33.130Z,26.37
2022-08-11T23:41:59.143Z,26.30
2022-08-11T23:44:25.149Z,26.38
2022-08-11T23:46:51.084Z,26.30
2022-08-11T23:49:17.036Z,26.21
2022-08-11T23:51:43.045Z,26.19
2022-08-11T23:54:08.991Z,26.25
2022-08-11T23:56:34.958Z,26.23
2022-08-11T23:59:00.959Z,26.09
